Time;durP1;ratioP1;P1;durP2;ratioP2;P2;SDS_P1;SDS_P2;PMS_P1;PMS_P2;Temp;Humidity;BMP_temperature;BMP_pressure;BME280_temperature;BME280_humidity;BME280_pressure;Samples;Min_cycle;Max_cycle;Signal;HPM_P1;HPM_P2
2022/09/03 00:01:22;;;;;;;3.72;1.73;;;;;18.20;100418.00;;;;13077665;22;20222;-74
2022/09/03 00:06:33;;;;;;;4.57;1.83;;;;;18.20;100423.00;;;;13109301;22;20739;-74
2022/09/03 00:11:49;;;;;;;2.20;1.55;;;;;18.20;100419.00;;;;13062672;22;20699;-74
2022/09/03 00:16:58;;;;;;;3.65;2.13;;;;;18.30;100417.00;;;;13037906;22;20173;-74
2022/09/03 00:22:07;;;;;;;5.28;1.60;;;;;18.30;100417.00;;;;13058556;22;20623;-74
2022/09/03 00:27:20;;;;;;;4.68;1.88;;;;;18.30;100420.00;;;;13084520;22;20179;-73
2022/09/03 00:32:33;;;;;;;1.77;1.67;;;;;18.30;100420.00;;;;13038304;22;20271;-74
2022/09/03 00:37:35;;;;;;;5.25;1.88;;;;;18.40;100421.00;;;;13063049;22;20598;-74
2022/09/03 00:42:54;;;;;;;3.13;2.05;;;;;18.40;100418.00;;;;13111141;22;20169;-74
2022/09/03 00:48:01;;;;;;;4.45;2.03;;;;;18.40;100417.00;;;;13112491;22;20169;-74
2022/09/03 00:53:27;;;;;;;2.42;1.80;;;;;18.30;100435.00;;;;13063821;22;20191;-74
2022/09/03 00:58:38;;;;;;;3.60;2.03;;;;;18.30;100433.00;;;;13038145;22;20167;-74
2022/09/03 01:03:54;;;;;;;2.33;2.13;;;;;18.20;100425.00;;;;13012270;22;20723;-74
2022/09/03 01:09:18;;;;;;;2.28;1.70;;;;;18.20;100431.00;;;;13062554;22;20201;-74
2022/09/03 01:14:37;;;;;;;4.57;2.00;;;;;18.10;100434.00;;;;13084455;22;20190;-74
2022/09/03 01:20:13;;;;;;;3.00;1.58;;;;;18.10;100438.00;;;;13085650;22;20164;-74
2022/09/03 01:25:20;;;;;;;1.75;1.42;;;;;18.10;100433.00;;;;13084643;22;20296;-74
2022/09/03 01:30:22;;;;;;;5.55;1.70;;;;;18.10;100435.00;;;;13110922;22;20217;-74
2022/09/03 01:35:37;;;;;;;3.58;1.98;;;;;18.10;100430.00;;;;13111069;22;20172;-74
2022/09/03 01:42:12;;;;;;;3.85;1.95;;;;;18.00;100437.00;;;;13084462;22;20164;-74
2022/09/03 01:46:30;;;;;;;3.42;1.75;;;;;18.00;100438.00;;;;13111650;22;20167;-74
2022/09/03 01:51:32;;;;;;;5.13;1.80;;;;;18.00;100433.00;;;;13083082;22;20513;-74
2022/09/03 01:57:17;;;;;;;2.20;1.52;;;;;17.90;100436.00;;;;13062220;22;20167;-74
2022/09/03 02:02:40;;;;;;;2.45;2.00;;;;;17.80;100436.00;;;;13037751;22;20167;-74
2022/09/03 02:07:53;;;;;;;6.15;1.83;;;;;17.80;100446.00;;;;13108412;22;20306;-74
2022/09/03 02:13:04;;;;;;;3.05;1.65;;;;;17.80;100446.00;;;;13035580;22;20192;-74
2022/09/03 02:18:10;;;;;;;5.40;1.80;;;;;17.80;100438.00;;;;13110468;22;20170;-74
2022/09/03 02:23:13;;;;;;;4.30;1.90;;;;;17.80;100442.00;;;;13108913;22;20246;-74
2022/09/03 02:28:14;;;;;;;3.55;1.85;;;;;17.70;100437.00;;;;13084589;22;20191;-74
2022/09/03 02:33:19;;;;;;;2.47;1.92;;;;;17.70;100441.00;;;;13082262;22;20187;-74
2022/09/03 02:38:25;;;;;;;2.55;1.63;;;;;17.60;100438.00;;;;13035156;22;20171;-74
2022/09/03 02:43:33;;;;;;;3.25;1.65;;;;;17.60;100436.00;;;;13113896;22;20881;-74
2022/09/03 02:48:34;;;;;;;2.42;1.90;;;;;17.60;100443.00;;;;13083301;22;20175;-74
2022/09/03 02:53:36;;;;;;;2.53;1.95;;;;;17.60;100452.00;;;;13032043;22;20193;-74
2022/09/03 02:58:37;;;;;;;3.08;1.67;;;;;17.50;100447.00;;;;13083371;22;20163;-74
2022/09/03 03:03:39;;;;;;;3.87;1.70;;;;;17.50;100448.00;;;;13083057;22;20164;-74
2022/09/03 03:08:40;;;;;;;3.25;1.60;;;;;17.50;100444.00;;;;13108275;22;20866;-74
2022/09/03 03:13:42;;;;;;;3.43;1.83;;;;;17.60;100445.00;;;;13108483;22;20235;-74
2022/09/03 03:18:45;;;;;;;3.08;1.50;;;;;17.60;100446.00;;;;13061501;22;20176;-74
2022/09/03 03:23:46;;;;;;;2.40;1.73;;;;;17.60;100445.00;;;;13036067;22;20182;-74
2022/09/03 03:28:48;;;;;;;3.10;2.00;;;;;17.60;100446.00;;;;13108599;22;20499;-74
2022/09/03 03:33:55;;;;;;;5.53;1.75;;;;;17.50;100445.00;;;;13081855;22;20779;-74
2022/09/03 03:38:58;;;;;;;8.90;2.50;;;;;17.50;100458.00;;;;13109684;22;20160;-74
2022/09/03 03:44:02;;;;;;;2.38;1.80;;;;;17.40;100457.00;;;;13109359;22;20217;-74
2022/09/03 03:49:05;;;;;;;5.35;2.00;;;;;17.40;100455.00;;;;13063296;22;20809;-74
2022/09/03 03:54:06;;;;;;;6.85;1.77;;;;;17.40;100462.00;;;;13110132;22;20197;-74
2022/09/03 03:59:08;;;;;;;1.83;1.70;;;;;17.40;100464.00;;;;13111569;22;20163;-74
2022/09/03 04:04:09;;;;;;;3.33;1.70;;;;;17.50;100460.00;;;;13082832;22;20715;-73
2022/09/03 04:09:10;;;;;;;3.40;1.80;;;;;17.70;100456.00;;;;13062799;22;20171;-74
2022/09/03 04:14:11;;;;;;;3.55;2.00;;;;;17.90;100447.00;;;;13062459;22;20248;-74
2022/09/03 04:19:13;;;;;;;3.13;1.93;;;;;18.10;100443.00;;;;13111002;22;20172;-73
2022/09/03 04:24:14;;;;;;;2.97;2.03;;;;;18.20;100447.00;;;;13063217;22;20168;-74
2022/09/03 04:29:15;;;;;;;2.77;1.97;;;;;18.30;100436.00;;;;13023087;22;20199;-74
2022/09/03 04:34:16;;;;;;;5.35;2.70;;;;;18.40;100437.00;;;;13062220;22;20196;-74
2022/09/03 04:39:18;;;;;;;3.53;2.67;;;;;18.50;100434.00;;;;13011115;22;20228;-74
2022/09/03 04:44:19;;;;;;;2.78;2.45;;;;;18.50;100429.00;;;;13034292;22;20255;-74
2022/09/03 04:49:20;;;;;;;4.28;2.15;;;;;18.50;100430.00;;;;13085220;22;20163;-74
2022/09/03 04:54:21;;;;;;;3.08;2.75;;;;;18.50;100430.00;;;;13111449;22;20187;-74
2022/09/03 04:59:28;;;;;;;3.13;2.70;;;;;18.50;100433.00;;;;13058524;22;20175;-74
2022/09/03 05:04:30;;;;;;;3.40;2.70;;;;;18.60;100425.00;;;;13000707;22;20180;-74
2022/09/03 05:09:31;;;;;;;4.55;2.30;;;;;18.70;100421.00;;;;13034393;22;20163;-74
2022/09/03 05:14:32;;;;;;;2.20;2.00;;;;;18.80;100423.00;;;;13109162;22;20187;-74
2022/09/03 05:19:33;;;;;;;3.50;2.53;;;;;18.90;100429.00;;;;13036836;22;20198;-74
2022/09/03 05:24:34;;;;;;;6.57;3.10;;;;;18.80;100433.00;;;;13083444;22;20163;-74
2022/09/03 05:29:35;;;;;;;4.95;3.30;;;;;18.50;100433.00;;;;13034491;22;20168;-74
2022/09/03 05:34:36;;;;;;;3.75;2.60;;;;;18.10;100431.00;;;;13033155;22;20196;-75
2022/09/03 05:39:37;;;;;;;3.22;2.55;;;;;17.40;100426.00;;;;13009821;22;20250;-75
2022/09/03 05:44:39;;;;;;;2.65;2.45;;;;;16.90;100418.00;;;;13083250;22;20171;-74
2022/09/03 05:49:40;;;;;;;4.27;3.30;;;;;16.70;100428.00;;;;13033522;22;20187;-74
2022/09/03 05:54:42;;;;;;;4.57;3.30;;;;;16.60;100433.00;;;;13044281;22;20634;-74
2022/09/03 05:59:43;;;;;;;4.57;3.40;;;;;16.70;100419.00;;;;13061457;22;20183;-73
2022/09/03 06:04:44;;;;;;;5.30;3.37;;;;;16.80;100434.00;;;;13034555;22;20173;-74
2022/09/03 06:09:46;;;;;;;6.10;3.17;;;;;17.00;100445.00;;;;13083258;22;20216;-73
2022/09/03 06:14:47;;;;;;;3.63;3.13;;;;;17.10;100445.00;;;;13109059;22;20673;-73
2022/09/03 06:19:48;;;;;;;3.63;3.27;;;;;17.20;100453.00;;;;13108556;22;20164;-73
2022/09/03 06:24:50;;;;;;;3.45;3.15;;;;;17.50;100465.00;;;;13059310;22;20191;-73
2022/09/03 06:29:51;;;;;;;4.37;2.90;;;;;17.80;100471.00;;;;13010845;22;20203;-73
2022/09/03 06:34:52;;;;;;;3.28;2.97;;;;;18.20;100471.00;;;;13083844;22;20195;-73
2022/09/03 06:39:54;;;;;;;8.15;3.38;;;;;18.40;100483.00;;;;13060695;22;20178;-73
2022/09/03 06:44:56;;;;;;;9.50;3.40;;;;;18.60;100478.00;;;;13059953;22;20167;-73
2022/09/03 06:49:58;;;;;;;6.15;2.83;;;;;18.90;100472.00;;;;13030996;22;20602;-73
2022/09/03 06:55:00;;;;;;;5.50;3.08;;;;;19.20;100483.00;;;;13106906;22;20195;-73
2022/09/03 07:00:03;;;;;;;4.28;2.42;;;;;19.40;100486.00;;;;13034306;22;20172;-73
2022/09/03 07:05:07;;;;;;;3.78;2.50;;;;;19.80;100488.00;;;;13057071;22;20262;-73
2022/09/03 07:10:19;;;;;;;4.00;2.63;;;;;19.90;100491.00;;;;13078881;22;20276;-73
2022/09/03 07:15:20;;;;;;;2.60;2.20;;;;;20.10;100494.00;;;;12998718;22;20621;-73
2022/09/03 07:20:22;;;;;;;5.07;2.00;;;;;20.50;100496.00;;;;13055645;22;20514;-73
2022/09/03 07:25:25;;;;;;;3.20;1.95;;;;;20.90;100493.00;;;;13109155;22;20199;-73
2022/09/03 07:30:26;;;;;;;3.20;2.30;;;;;21.10;100504.00;;;;13107907;22;20652;-73
2022/09/03 07:35:27;;;;;;;3.70;1.85;;;;;21.40;100503.00;;;;13054792;22;20171;-74
2022/09/03 07:40:28;;;;;;;4.45;1.80;;;;;21.80;100503.00;;;;13032979;22;20571;-74
2022/09/03 07:45:32;;;;;;;4.10;1.80;;;;;22.40;100508.00;;;;13030114;22;20239;-74
2022/09/03 07:50:38;;;;;;;2.30;2.08;;;;;23.10;100509.00;;;;13054349;22;20179;-74
2022/09/03 07:55:39;;;;;;;3.13;2.00;;;;;23.70;100512.00;;;;13080010;22;20498;-74
2022/09/03 08:00:40;;;;;;;4.47;2.13;;;;;24.30;100507.00;;;;13031050;22;20172;-74
2022/09/03 08:05:42;;;;;;;2.88;1.70;;;;;24.80;100510.00;;;;13057529;22;20174;-74
2022/09/03 08:10:43;;;;;;;2.30;2.10;;;;;25.10;100514.00;;;;13056097;22;20827;-74
2022/09/03 08:15:54;;;;;;;2.38;2.08;;;;;25.20;100508.00;;;;13049033;22;20175;-74
2022/09/03 08:20:58;;;;;;;4.07;2.58;;;;;25.50;100513.00;;;;13079026;22;20537;-74
2022/09/03 08:26:00;;;;;;;6.38;2.80;;;;;25.80;100523.00;;;;13031387;22;20244;-74
2022/09/03 08:31:10;;;;;;;3.63;3.20;;;;;26.10;100529.00;;;;13107250;22;20182;-74
2022/09/03 08:36:17;;;;;;;11.57;3.30;;;;;26.20;100537.00;;;;13059347;22;20175;-75
2022/09/03 08:41:46;;;;;;;3.83;2.45;;;;;26.20;100532.00;;;;13080658;22;20262;-74
2022/09/03 08:47:06;;;;;;;3.53;2.55;;;;;26.30;100541.00;;;;13082093;22;20159;-74
2022/09/03 08:52:22;;;;;;;3.63;2.70;;;;;26.60;100549.00;;;;13061377;22;20195;-74
2022/09/03 08:57:24;;;;;;;3.97;3.15;;;;;27.30;100550.00;;;;13059677;22;20608;-74
2022/09/03 09:02:53;;;;;;;5.10;2.72;;;;;27.60;100544.00;;;;13034838;22;20572;-74
2022/09/03 09:08:11;;;;;;;3.72;3.10;;;;;28.20;100559.00;;;;13007770;22;20179;-75
2022/09/03 09:13:25;;;;;;;3.45;3.10;;;;;28.30;100546.00;;;;13079611;22;20244;-74
2022/09/03 09:19:00;;;;;;;3.40;2.85;;;;;28.90;100543.00;;;;13006378;22;20678;-73
2022/09/03 09:24:07;;;;;;;3.45;3.00;;;;;30.50;100552.00;;;;13060248;22;20537;-76
2022/09/03 09:29:11;;;;;;;4.68;2.92;;;;;30.60;100550.00;;;;13077316;22;20262;-74
2022/09/03 09:34:12;;;;;;;3.72;2.92;;;;;30.20;100558.00;;;;13032587;22;20217;-75
2022/09/03 09:39:17;;;;;;;4.72;3.38;;;;;29.90;100546.00;;;;13060443;22;20825;-75
2022/09/03 09:44:19;;;;;;;4.43;2.78;;;;;29.90;100547.00;;;;13106303;22;20178;-75
2022/09/03 09:49:36;;;;;;;3.03;2.70;;;;;29.70;100553.00;;;;13081341;22;20175;-75
2022/09/03 09:54:39;;;;;;;6.65;2.75;;;;;29.90;100560.00;;;;13107990;22;20695;-75
2022/09/03 09:59:40;;;;;;;2.92;2.70;;;;;30.90;100562.00;;;;13110637;22;20164;-75
2022/09/03 10:04:45;;;;;;;3.13;2.83;;;;;30.90;100565.00;;;;13055903;22;20185;-75
2022/09/03 10:09:57;;;;;;;5.95;3.28;;;;;30.70;100562.00;;;;13109608;22;20534;-75
2022/09/03 10:15:24;;;;;;;5.07;3.30;;;;;31.30;100547.00;;;;13009307;22;20759;-75
2022/09/03 10:20:53;;;;;;;5.93;3.47;;;;;32.50;100546.00;;;;13081880;22;20250;-75
2022/09/03 10:26:10;;;;;;;3.70;3.40;;;;;32.80;100556.00;;;;13034469;22;20184;-76
2022/09/03 10:31:39;;;;;;;3.90;3.50;;;;;32.50;100569.00;;;;13058275;22;20190;-76
2022/09/03 10:37:13;;;;;;;10.80;4.60;;;;;31.50;100564.00;;;;13108301;22;20250;-76
2022/09/03 10:42:25;;;;;;;5.00;3.00;;;;;31.30;100575.00;;;;13082213;22;20164;-75
2022/09/03 10:48:00;;;;;;;4.25;2.67;;;;;31.30;100577.00;;;;13108118;22;20197;-76
2022/09/03 10:53:24;;;;;;;4.78;3.72;;;;;30.20;100569.00;;;;13030566;22;20203;-75
2022/09/03 10:58:50;;;;;;;3.90;3.30;;;;;29.40;100563.00;;;;13105250;22;20258;-76
2022/09/03 11:04:19;;;;;;;4.68;3.45;;;;;28.60;100574.00;;;;13105694;22;20159;-75
2022/09/03 11:09:25;;;;;;;4.57;4.05;;;;;28.60;100566.00;;;;13080432;22;20175;-75
2022/09/03 11:14:43;;;;;;;5.13;3.45;;;;;29.10;100580.00;;;;13109245;22;20638;-75
2022/09/03 11:20:13;;;;;;;4.28;3.50;;;;;31.60;100556.00;;;;13059199;22;20171;-76
2022/09/03 11:25:18;;;;;;;4.97;3.95;;;;;33.60;100559.00;;;;13108811;22;20197;-76
2022/09/03 11:30:38;;;;;;;5.47;3.67;;;;;33.10;100561.00;;;;13088018;22;20175;-76
2022/09/03 11:35:41;;;;;;;4.35;3.42;;;;;33.30;100562.00;;;;13106318;22;20171;-76
2022/09/03 11:41:22;;;;;;;4.90;3.67;;;;;33.60;100548.00;;;;13109487;22;20333;-75
2022/09/03 11:46:23;;;;;;;3.83;3.38;;;;;34.40;100544.00;;;;13081933;22;20178;-76
2022/09/03 11:51:31;;;;;;;4.82;3.20;;;;;34.90;100537.00;;;;13032862;22;20192;-76
2022/09/03 11:56:34;;;;;;;4.28;3.05;;;;;34.20;100542.00;;;;13061196;22;20168;-75
2022/09/03 12:01:37;;;;;;;4.35;3.95;;;;;32.30;100548.00;;;;13054409;22;20242;-75
2022/09/03 12:06:59;;;;;;;5.22;3.63;;;;;33.00;100547.00;;;;13082127;22;20247;-75
2022/09/03 12:12:03;;;;;;;4.82;3.70;;;;;31.80;100549.00;;;;13109570;22;20237;-75
2022/09/03 12:17:16;;;;;;;5.47;4.03;;;;;31.50;100541.00;;;;13109780;22;20186;-75
2022/09/03 12:22:20;;;;;;;4.70;4.05;;;;;31.20;100537.00;;;;13084258;22;20163;-75
2022/09/03 12:27:31;;;;;;;3.53;3.28;;;;;30.70;100542.00;;;;13110848;22;20252;-75
2022/09/03 12:32:38;;;;;;;7.10;4.40;;;;;31.10;100544.00;;;;13036441;22;20194;-75
2022/09/03 12:37:43;;;;;;;4.57;4.18;;;;;30.90;100548.00;;;;13061891;22;20659;-75
2022/09/03 12:43:16;;;;;;;3.78;3.47;;;;;31.60;100543.00;;;;13084309;22;20172;-75
2022/09/03 12:48:37;;;;;;;3.28;2.60;;;;;32.20;100541.00;;;;13075683;22;20183;-75
2022/09/03 12:53:41;;;;;;;5.65;3.22;;;;;32.60;100537.00;;;;13106519;22;20191;-76
2022/09/03 12:58:58;;;;;;;3.53;3.22;;;;;32.60;100541.00;;;;13084274;22;20553;-76
2022/09/03 13:04:10;;;;;;;5.65;4.35;;;;;32.80;100533.00;;;;13062428;22;20171;-76
2022/09/03 13:09:13;;;;;;;3.40;3.10;;;;;32.30;100530.00;;;;13058000;22;20181;-76
2022/09/03 13:14:16;;;;;;;3.75;3.38;;;;;32.40;100530.00;;;;13085994;22;20519;-75
2022/09/03 13:19:35;;;;;;;4.65;3.10;;;;;32.40;100527.00;;;;13079317;22;20174;-76
2022/09/03 13:24:42;;;;;;;3.65;3.33;;;;;32.80;100527.00;;;;13110991;22;20163;-76
2022/09/03 13:30:16;;;;;;;3.60;3.30;;;;;33.70;100525.00;;;;13083839;22;20167;-76
2022/09/03 13:35:34;;;;;;;5.13;3.15;;;;;35.30;100532.00;;;;13033744;22;20199;-76
2022/09/03 13:41:13;;;;;;;5.82;3.08;;;;;32.90;100515.00;;;;13108103;22;20163;-76
2022/09/03 13:46:34;;;;;;;4.32;3.22;;;;;32.50;100520.00;;;;13030227;22;20180;-76
2022/09/03 13:51:38;;;;;;;5.28;3.80;;;;;32.10;100517.00;;;;13059695;22;20656;-76
2022/09/03 13:57:04;;;;;;;3.20;2.90;;;;;31.60;100523.00;;;;13107940;22;20171;-76
2022/09/03 14:02:11;;;;;;;4.30;3.22;;;;;31.40;100531.00;;;;13060260;22;20175;-76
2022/09/03 14:07:22;;;;;;;3.65;3.25;;;;;30.80;100522.00;;;;13060766;22;20179;-76
2022/09/03 14:13:00;;;;;;;3.25;3.05;;;;;30.20;100525.00;;;;13033828;22;20191;-76
2022/09/03 14:18:28;;;;;;;3.40;3.10;;;;;30.30;100525.00;;;;13081766;22;20167;-74
2022/09/03 14:24:01;;;;;;;5.38;3.50;;;;;30.30;100516.00;;;;13086377;22;20577;-75
2022/09/03 14:29:13;;;;;;;5.07;3.50;;;;;29.80;100524.00;;;;13007745;22;20302;-75
2022/09/03 14:34:34;;;;;;;4.28;3.33;;;;;29.00;100522.00;;;;13106866;22;20190;-75
2022/09/03 14:39:54;;;;;;;5.13;3.65;;;;;28.30;100527.00;;;;13059532;22;20186;-75
2022/09/03 14:45:21;;;;;;;4.18;3.20;;;;;28.00;100527.00;;;;13059872;22;20187;-75
2022/09/03 14:50:47;;;;;;;3.85;3.45;;;;;27.70;100529.00;;;;13106420;22;20179;-75
2022/09/03 14:56:13;;;;;;;4.78;3.38;;;;;27.60;100531.00;;;;13107319;22;20163;-75
2022/09/03 15:01:27;;;;;;;4.75;3.50;;;;;27.50;100527.00;;;;13082007;22;20163;-75
2022/09/03 15:06:53;;;;;;;5.25;3.28;;;;;27.50;100525.00;;;;13058781;22;20708;-75
2022/09/03 15:12:00;;;;;;;4.90;3.13;;;;;28.20;100522.00;;;;13109258;22;20658;-75
2022/09/03 15:17:18;;;;;;;3.80;3.40;;;;;28.30;100525.00;;;;13081137;22;20812;-75
2022/09/03 15:22:45;;;;;;;4.18;3.25;;;;;29.00;100522.00;;;;13104492;22;20581;-75
2022/09/03 15:28:05;;;;;;;3.45;3.15;;;;;29.10;100524.00;;;;13081080;22;20184;-75
2022/09/03 15:33:29;;;;;;;3.30;3.00;;;;;28.70;100532.00;;;;13058334;22;20222;-75
2022/09/03 15:38:47;;;;;;;4.22;3.38;;;;;28.40;100538.00;;;;13106507;22;20163;-75
2022/09/03 15:43:50;;;;;;;4.43;3.60;;;;;28.30;100551.00;;;;13084912;22;20167;-75
2022/09/03 15:49:01;;;;;;;5.30;3.70;;;;;28.00;100549.00;;;;13056218;22;20179;-75
2022/09/03 15:54:18;;;;;;;3.50;3.20;;;;;27.80;100550.00;;;;13056778;22;20217;-75
2022/09/03 15:59:41;;;;;;;3.15;2.85;;;;;27.60;100544.00;;;;13062607;22;20179;-75
2022/09/03 16:04:43;;;;;;;4.18;3.42;;;;;27.10;100552.00;;;;13035418;22;20255;-74
2022/09/03 16:10:07;;;;;;;4.82;3.00;;;;;26.80;100557.00;;;;13061731;22;20526;-75
2022/09/03 16:15:37;;;;;;;2.95;2.60;;;;;26.40;100555.00;;;;13083638;22;20538;-75
2022/09/03 16:20:45;;;;;;;3.22;2.58;;;;;26.40;100563.00;;;;13081405;22;20621;-74
2022/09/03 16:26:20;;;;;;;6.07;2.78;;;;;26.60;100572.00;;;;13060367;22;20195;-75
2022/09/03 16:31:34;;;;;;;3.20;2.90;;;;;26.80;100555.00;;;;13088087;22;20554;-75
2022/09/03 16:36:50;;;;;;;3.38;3.03;;;;;27.10;100564.00;;;;13058260;22;20302;-75
2022/09/03 16:41:51;;;;;;;3.40;3.08;;;;;27.10;100561.00;;;;13082754;22;20173;-74
2022/09/03 16:47:18;;;;;;;6.07;3.50;;;;;26.80;100569.00;;;;13083290;22;20171;-75
2022/09/03 16:52:51;;;;;;;9.20;3.97;;;;;26.40;100575.00;;;;13106880;22;20266;-75
2022/09/03 16:58:08;;;;;;;5.03;3.30;;;;;25.90;100573.00;;;;13035888;22;20174;-75
2022/09/03 17:03:27;;;;;;;4.65;4.18;;;;;25.50;100581.00;;;;13107432;22;20215;-75
2022/09/03 17:08:39;;;;;;;4.88;3.53;;;;;25.30;100587.00;;;;13110096;22;20170;-75
2022/09/03 17:14:10;;;;;;;3.25;2.95;;;;;25.10;100593.00;;;;13035853;22;20304;-75
2022/09/03 17:19:30;;;;;;;3.25;2.75;;;;;24.90;100592.00;;;;13108707;22;20195;-74
2022/09/03 17:24:51;;;;;;;3.45;2.60;;;;;24.50;100602.00;;;;13082751;22;20547;-75
2022/09/03 17:30:01;;;;;;;6.28;2.97;;;;;24.20;100621.00;;;;13035768;22;20175;-74
2022/09/03 17:35:17;;;;;;;2.70;2.50;;;;;23.90;100612.00;;;;13083018;22;20191;-74
2022/09/03 17:40:34;;;;;;;2.50;2.30;;;;;23.40;100621.00;;;;13083545;22;20163;-74
2022/09/03 17:45:36;;;;;;;4.05;2.30;;;;;23.20;100621.00;;;;13060822;22;20178;-74
2022/09/03 17:51:03;;;;;;;2.20;2.00;;;;;23.00;100632.00;;;;13080668;22;20172;-74
2022/09/03 17:56:19;;;;;;;2.85;2.33;;;;;22.90;100633.00;;;;13107975;22;20205;-74
2022/09/03 18:01:27;;;;;;;2.63;2.42;;;;;22.70;100640.00;;;;13056960;22;20183;-75
2022/09/03 18:06:41;;;;;;;3.38;2.20;;;;;22.50;100653.00;;;;13082449;22;20196;-74
2022/09/03 18:11:54;;;;;;;2.92;2.10;;;;;22.40;100657.00;;;;13080941;22;20187;-75
2022/09/03 18:17:08;;;;;;;4.13;2.50;;;;;22.20;100658.00;;;;13034312;22;20199;-74
2022/09/03 20:14:35;;;;;;;4.35;2.67;;;;;20.80;100756.00;;;;13058435;22;20226;-74
2022/09/03 20:19:56;;;;;;;3.40;2.47;;;;;20.70;100763.00;;;;13108079;22;20238;-74
2022/09/03 20:25:17;;;;;;;3.10;2.47;;;;;20.60;100764.00;;;;13031555;22;20194;-74
2022/09/03 20:30:20;;;;;;;3.88;2.15;;;;;20.50;100770.00;;;;13083691;22;20234;-74
2022/09/03 20:35:26;;;;;;;3.03;2.78;;;;;20.30;100764.00;;;;13037197;22;20275;-74
2022/09/03 20:40:52;;;;;;;2.70;2.13;;;;;20.20;100763.00;;;;13062786;22;20254;-74
2022/09/03 20:46:08;;;;;;;2.50;2.30;;;;;20.10;100762.00;;;;13110537;22;20164;-74
2022/09/03 20:51:20;;;;;;;2.60;2.33;;;;;20.00;100770.00;;;;13083429;22;20234;-74
2022/09/03 20:56:58;;;;;;;2.50;2.30;;;;;20.00;100772.00;;;;13107456;22;20898;-74
2022/09/03 21:02:17;;;;;;;2.70;2.50;;;;;19.90;100779.00;;;;13084241;22;20179;-74
2022/09/03 21:07:34;;;;;;;5.15;3.50;;;;;19.80;100786.00;;;;13084435;22;20159;-74
2022/09/03 21:13:05;;;;;;;2.97;2.72;;;;;19.60;100788.00;;;;13003136;22;20221;-74
2022/09/03 21:18:47;;;;;;;4.00;3.20;;;;;19.40;100798.00;;;;13054759;22;20176;-74
2022/09/03 21:24:27;;;;;;;4.20;3.03;;;;;19.40;100794.00;;;;13060412;22;20234;-74
2022/09/03 21:29:43;;;;;;;4.72;3.33;;;;;19.40;100804.00;;;;13087959;22;20183;-74
2022/09/03 21:35:23;;;;;;;3.85;3.15;;;;;19.20;100805.00;;;;13111900;22;20713;-74
2022/09/03 21:40:31;;;;;;;4.07;3.10;;;;;19.10;100804.00;;;;13029208;22;20175;-74
2022/09/03 21:45:39;;;;;;;4.07;3.05;;;;;19.10;100804.00;;;;13106940;22;20195;-74
2022/09/03 21:50:45;;;;;;;3.47;2.90;;;;;19.00;100812.00;;;;13060131;22;20232;-75
2022/09/03 21:56:04;;;;;;;3.65;3.35;;;;;18.90;100811.00;;;;13109878;22;20262;-74
2022/09/03 22:01:15;;;;;;;5.78;3.58;;;;;18.90;100805.00;;;;13060177;22;20199;-74
2022/09/03 22:06:25;;;;;;;4.78;3.97;;;;;18.80;100809.00;;;;13083816;22;20205;-75
2022/09/03 22:11:55;;;;;;;4.78;3.22;;;;;18.60;100807.00;;;;13083394;22;20187;-74
2022/09/03 22:17:05;;;;;;;2.92;2.72;;;;;18.50;100812.00;;;;13109956;22;20622;-74
2022/09/03 22:22:50;;;;;;;3.80;3.15;;;;;18.40;100815.00;;;;13036276;22;20167;-74
2022/09/03 22:28:06;;;;;;;4.07;3.38;;;;;18.20;100816.00;;;;13040780;22;20199;-74
2022/09/03 22:33:19;;;;;;;4.35;3.95;;;;;18.20;100810.00;;;;13036526;22;20605;-74
2022/09/03 22:38:36;;;;;;;4.85;3.60;;;;;18.10;100820.00;;;;13059106;22;20167;-74
2022/09/03 22:43:50;;;;;;;4.50;3.47;;;;;18.10;100809.00;;;;13062257;22;20174;-74
2022/09/03 22:49:08;;;;;;;5.32;3.78;;;;;18.00;100817.00;;;;13060763;22;20519;-74
2022/09/03 22:54:31;;;;;;;5.00;3.25;;;;;18.00;100826.00;;;;13056300;22;20324;-74
2022/09/03 22:59:37;;;;;;;4.43;3.20;;;;;18.00;100828.00;;;;13081691;22;20190;-74
2022/09/03 23:05:04;;;;;;;5.60;4.38;;;;;18.00;100821.00;;;;13083982;22;20160;-74
2022/09/03 23:10:15;;;;;;;6.70;3.72;;;;;18.10;100829.00;;;;13036107;22;20164;-74
2022/09/03 23:15:29;;;;;;;4.00;3.58;;;;;18.00;100837.00;;;;13106292;22;20198;-74
2022/09/03 23:20:34;;;;;;;4.03;3.63;;;;;18.00;100832.00;;;;13084354;22;20171;-74
2022/09/03 23:25:41;;;;;;;4.28;3.60;;;;;17.90;100847.00;;;;13036100;22;20223;-74
2022/09/03 23:30:43;;;;;;;3.50;3.20;;;;;17.80;100849.00;;;;13109103;22;20166;-74
2022/09/03 23:35:51;;;;;;;4.55;3.47;;;;;17.80;100847.00;;;;13061669;22;20195;-74
2022/09/03 23:40:56;;;;;;;4.53;4.07;;;;;17.70;100861.00;;;;13082532;22;20254;-74
2022/09/03 23:46:17;;;;;;;5.28;3.75;;;;;17.70;100866.00;;;;13035203;22;20495;-73
2022/09/03 23:51:34;;;;;;;4.75;3.92;;;;;17.80;100868.00;;;;13057859;22;20230;-74
2022/09/03 23:56:57;;;;;;;4.93;3.92;;;;;17.90;100860.00;;;;13033801;22;20194;-74
